createdAt,value
2022-11-27T00:01:28.031Z,14.43
2022-11-27T00:03:56.387Z,15.13
2022-11-27T00:06:25.890Z,15.80
2022-11-27T00:08:53.286Z,15.55
2022-11-27T00:11:22.714Z,15.35
2022-11-27T00:13:50.622Z,15.48
2022-11-27T00:16:18.672Z,15.52
2022-11-27T00:18:46.391Z,15.85
2022-11-27T00:21:16.328Z,20.15
2022-11-27T00:23:44.003Z,21.30
2022-11-27T00:26:14.423Z,21.52
2022-11-27T00:28:42.061Z,21.15
2022-11-27T00:31:15.692Z,21.73
2022-11-27T00:33:43.404Z,20.05
2022-11-27T00:36:12.077Z,19.65
2022-11-27T00:38:39.490Z,22.25
2022-11-27T00:41:12.574Z,22.02
2022-11-27T00:43:44.193Z,24.27
2022-11-27T00:46:14.136Z,26.08
2022-11-27T00:48:41.745Z,26.08
2022-11-27T00:51:12.190Z,25.30
2022-11-27T00:53:40.064Z,24.45
2022-11-27T00:56:07.895Z,24.40
2022-11-27T00:58:35.469Z,23.40
2022-11-27T01:01:06.489Z,23.77
2022-11-27T01:03:34.774Z,23.80
2022-11-27T01:06:04.246Z,23.98
2022-11-27T01:08:32.602Z,24.35
2022-11-27T01:11:00.821Z,25.95
2022-11-27T01:13:34.030Z,24.83
2022-11-27T01:16:07.454Z,23.17
2022-11-27T01:18:35.981Z,23.45
2022-11-27T01:21:04.355Z,23.65
2022-11-27T01:23:31.891Z,24.90
2022-11-27T01:26:06.790Z,23.67
2022-11-27T01:28:35.143Z,24.92
2022-11-27T01:31:07.334Z,23.42
2022-11-27T01:33:35.004Z,25.08
2022-11-27T01:36:04.839Z,23.35
2022-11-27T01:38:32.951Z,22.70
2022-11-27T01:41:08.203Z,24.42
2022-11-27T01:43:41.875Z,23.65
2022-11-27T01:46:30.108Z,24.05
2022-11-27T01:49:05.441Z,22.25
2022-11-27T01:51:33.160Z,22.02
2022-11-27T01:54:00.531Z,23.23
2022-11-27T01:56:28.319Z,24.98
2022-11-27T01:58:57.635Z,22.37
2022-11-27T02:01:26.184Z,23.98
2022-11-27T02:03:55.173Z,22.42
2022-11-27T02:06:22.738Z,23.00
2022-11-27T02:08:50.162Z,22.27
2022-11-27T02:11:29.338Z,23.17
2022-11-27T02:14:32.377Z,21.55
2022-11-27T02:17:20.487Z,22.05
2022-11-27T02:20:12.882Z,21.05
2022-11-27T02:22:52.045Z,21.25
2022-11-27T02:25:34.877Z,22.80
2022-11-27T02:28:14.226Z,22.75
2022-11-27T02:30:47.288Z,24.48
2022-11-27T02:33:17.643Z,24.15
2022-11-27T02:35:52.030Z,25.30
2022-11-27T02:38:33.125Z,21.92
2022-11-27T02:41:06.930Z,23.12
2022-11-27T02:43:37.546Z,22.60
2022-11-27T02:46:06.829Z,24.30
2022-11-27T02:48:42.772Z,23.10
2022-11-27T02:51:12.250Z,22.98
2022-11-27T02:53:43.666Z,25.05
2022-11-27T02:56:14.449Z,26.12
2022-11-27T02:58:42.254Z,26.85
2022-11-27T03:01:10.863Z,28.70
2022-11-27T03:03:45.550Z,26.10
2022-11-27T03:06:17.666Z,26.52
2022-11-27T03:09:02.175Z,26.55
2022-11-27T03:11:32.523Z,26.50
2022-11-27T03:14:03.791Z,26.27
2022-11-27T03:16:57.002Z,26.62
2022-11-27T03:19:47.876Z,27.92
2022-11-27T03:22:16.501Z,27.33
2022-11-27T03:24:44.318Z,28.10
2022-11-27T03:27:17.844Z,28.65
2022-11-27T03:29:48.147Z,29.05
2022-11-27T03:32:15.906Z,28.10
2022-11-27T03:34:43.621Z,30.88
2022-11-27T03:37:11.358Z,30.80
2022-11-27T03:39:39.009Z,30.58
2022-11-27T03:42:18.509Z,31.30
2022-11-27T03:45:08.138Z,30.00
2022-11-27T03:47:45.164Z,31.73
2022-11-27T03:50:40.306Z,30.08
2022-11-27T03:53:19.926Z,29.95
2022-11-27T03:56:05.430Z,29.98
2022-11-27T03:58:43.925Z,30.23
2022-11-27T04:01:13.434Z,29.55
2022-11-27T04:03:41.032Z,33.28
2022-11-27T04:06:08.510Z,30.75
2022-11-27T04:08:36.043Z,33.72
2022-11-27T04:11:03.671Z,30.95
2022-11-27T04:13:31.259Z,33.05
2022-11-27T04:16:02.272Z,31.30
2022-11-27T04:18:30.557Z,32.50
2022-11-27T04:20:58.252Z,28.83
2022-11-27T04:23:25.562Z,30.52
2022-11-27T04:25:53.124Z,32.03
2022-11-27T04:28:20.716Z,31.52
2022-11-27T04:30:52.773Z,35.70
2022-11-27T04:33:20.592Z,34.75
2022-11-27T04:35:48.003Z,34.67
2022-11-27T04:38:15.383Z,32.42
2022-11-27T04:40:43.110Z,34.53
2022-11-27T04:43:10.417Z,35.85
2022-11-27T04:45:37.823Z,35.90
2022-11-27T04:48:05.971Z,36.78
2022-11-27T04:50:33.350Z,34.17
2022-11-27T04:53:00.712Z,37.38
2022-11-27T04:55:28.275Z,35.70
2022-11-27T04:57:55.637Z,36.78
2022-11-27T05:00:22.955Z,36.55
2022-11-27T05:02:50.640Z,35.90
2022-11-27T05:05:17.950Z,35.58
2022-11-27T05:07:45.552Z,36.25
2022-11-27T05:10:13.264Z,35.60
2022-11-27T05:12:40.574Z,33.88
2022-11-27T05:15:09.041Z,34.47
2022-11-27T05:17:36.601Z,36.67
2022-11-27T05:20:04.190Z,33.88
2022-11-27T05:22:31.543Z,33.47
2022-11-27T05:24:59.148Z,31.65
2022-11-27T05:27:26.604Z,31.50
2022-11-27T05:29:53.908Z,28.50
2022-11-27T05:32:21.482Z,29.70
2022-11-27T05:34:49.674Z,27.50
2022-11-27T05:37:19.724Z,27.50
2022-11-27T05:39:47.798Z,23.92
2022-11-27T05:42:15.145Z,23.42
2022-11-27T05:44:42.761Z,22.92
2022-11-27T05:47:10.532Z,23.48
2022-11-27T05:49:38.568Z,21.65
2022-11-27T05:52:05.916Z,22.67
2022-11-27T05:54:33.496Z,24.45
2022-11-27T05:57:00.771Z,24.30
2022-11-27T05:59:28.150Z,23.92
2022-11-27T06:01:55.803Z,27.35
2022-11-27T06:04:23.461Z,23.90
2022-11-27T06:06:51.031Z,24.08
2022-11-27T06:09:18.336Z,23.23
2022-11-27T06:11:45.963Z,23.35
2022-11-27T06:14:13.266Z,21.62
2022-11-27T06:16:40.595Z,22.80
2022-11-27T06:19:09.145Z,25.08
2022-11-27T06:21:36.571Z,21.42
2022-11-27T06:24:04.108Z,19.25
2022-11-27T06:26:33.401Z,19.60
2022-11-27T06:29:01.217Z,18.12
2022-11-27T06:31:31.264Z,18.33
2022-11-27T06:33:59.066Z,18.48
2022-11-27T06:36:32.009Z,19.00
2022-11-27T06:39:00.152Z,18.73
2022-11-27T06:41:28.634Z,19.40
2022-11-27T06:43:58.592Z,18.83
2022-11-27T06:46:26.922Z,19.17
2022-11-27T06:48:54.893Z,19.15
2022-11-27T06:51:25.038Z,18.33
2022-11-27T06:53:53.409Z,17.87
2022-11-27T06:56:25.767Z,18.80
2022-11-27T06:58:55.588Z,19.75
2022-11-27T07:01:24.496Z,17.75
2022-11-27T07:03:52.164Z,18.62
2022-11-27T07:06:22.335Z,19.12
2022-11-27T07:08:49.641Z,19.75
2022-11-27T07:11:19.754Z,19.10
2022-11-27T07:13:48.138Z,21.65
2022-11-27T07:16:16.682Z,21.52
2022-11-27T07:18:47.246Z,25.48
2022-11-27T07:21:15.064Z,26.73
2022-11-27T07:23:42.452Z,26.20
2022-11-27T07:26:15.899Z,23.70
2022-11-27T07:28:44.193Z,22.70
2022-11-27T07:31:16.689Z,22.95
2022-11-27T07:33:44.429Z,23.55
2022-11-27T07:36:14.645Z,27.02
2022-11-27T07:38:42.693Z,26.75
2022-11-27T07:41:10.725Z,30.27
2022-11-27T07:43:38.116Z,27.77
2022-11-27T07:46:08.187Z,26.95
2022-11-27T07:48:35.845Z,26.77
2022-11-27T07:51:06.141Z,27.42
2022-11-27T07:53:37.570Z,25.42
2022-11-27T07:56:09.658Z,25.15
2022-11-27T07:58:37.013Z,29.12
2022-11-27T08:01:09.729Z,26.50
2022-11-27T08:03:38.051Z,24.55
2022-11-27T08:06:13.923Z,25.50
2022-11-27T08:08:41.503Z,25.77
2022-11-27T08:11:18.729Z,23.73
2022-11-27T08:13:46.653Z,24.50
2022-11-27T08:16:14.123Z,23.92
2022-11-27T08:18:41.742Z,25.45
2022-11-27T08:21:09.402Z,24.50
2022-11-27T08:23:36.755Z,24.02
2022-11-27T08:26:11.454Z,24.02
2022-11-27T08:28:39.814Z,23.92
2022-11-27T08:31:09.041Z,23.55
2022-11-27T08:33:36.881Z,23.30
2022-11-27T08:36:04.704Z,23.55
2022-11-27T08:38:32.044Z,22.67
2022-11-27T08:41:01.563Z,23.35
2022-11-27T08:43:29.878Z,22.15
2022-11-27T08:45:57.376Z,24.48
2022-11-27T08:48:24.981Z,23.67
2022-11-27T08:50:52.854Z,23.20
2022-11-27T08:53:20.883Z,20.85
2022-11-27T08:55:48.225Z,20.65
2022-11-27T08:58:15.871Z,19.87
2022-11-27T09:00:43.475Z,20.65
2022-11-27T09:03:12.327Z,20.90
2022-11-27T09:05:44.343Z,18.40
2022-11-27T09:08:16.747Z,18.33
2022-11-27T09:10:44.314Z,18.70
2022-11-27T09:13:11.688Z,18.62
2022-11-27T09:15:39.054Z,22.02
2022-11-27T09:18:06.662Z,19.30
2022-11-27T09:20:34.031Z,18.90
2022-11-27T09:23:02.477Z,19.00
2022-11-27T09:25:30.079Z,17.42
2022-11-27T09:27:57.435Z,17.95
2022-11-27T09:30:24.772Z,16.10
2022-11-27T09:32:52.532Z,16.35
2022-11-27T09:35:20.049Z,15.10
2022-11-27T09:37:47.727Z,14.40
2022-11-27T09:40:17.454Z,15.63
2022-11-27T09:43:09.792Z,15.88
2022-11-27T09:45:54.962Z,15.90
2022-11-27T09:48:33.675Z,17.52
2022-11-27T09:51:05.128Z,16.60
2022-11-27T09:56:13.510Z,18.37
2022-11-27T09:58:42.968Z,19.52
2022-11-27T10:01:16.813Z,19.58
2022-11-27T10:03:45.774Z,17.65
2022-11-27T10:06:33.266Z,18.42
2022-11-27T10:09:09.085Z,18.77
2022-11-27T10:11:53.823Z,17.77
2022-11-27T10:14:30.909Z,17.73
2022-11-27T10:17:02.420Z,18.33
2022-11-27T10:19:39.535Z,17.00
2022-11-27T10:22:21.427Z,19.60
2022-11-27T10:25:15.601Z,16.70
2022-11-27T10:30:56.608Z,21.30
2022-11-27T10:33:27.538Z,20.90
2022-11-27T10:35:55.202Z,20.23
2022-11-27T10:38:24.300Z,19.95
2022-11-27T10:41:06.421Z,19.08
2022-11-27T10:43:35.868Z,19.90
2022-11-27T10:46:25.187Z,20.02
2022-11-27T10:48:52.858Z,19.98
2022-11-27T10:51:30.471Z,20.20
2022-11-27T10:53:59.416Z,19.52
2022-11-27T10:56:40.459Z,21.90
2022-11-27T10:59:19.755Z,20.95
2022-11-27T11:01:50.392Z,21.42
2022-11-27T11:04:39.141Z,19.27
2022-11-27T11:07:27.474Z,19.70
2022-11-27T11:09:55.411Z,19.85
2022-11-27T11:12:23.956Z,21.27
2022-11-27T11:15:01.730Z,23.17
2022-11-27T11:17:37.849Z,25.10
2022-11-27T11:20:15.407Z,23.33
2022-11-27T11:22:47.230Z,25.27
2022-11-27T11:25:19.957Z,24.77
2022-11-27T11:27:48.625Z,26.40
2022-11-27T11:30:25.019Z,24.85
2022-11-27T11:32:59.858Z,23.52
2022-11-27T11:35:32.151Z,23.77
2022-11-27T11:40:31.806Z,23.75
2022-11-27T11:43:00.484Z,24.87
2022-11-27T11:45:33.421Z,24.20
2022-11-27T11:48:25.318Z,26.37
2022-11-27T11:51:10.190Z,28.50
2022-11-27T11:53:39.997Z,26.95
2022-11-27T11:56:32.407Z,27.73
2022-11-27T11:59:10.955Z,29.15
2022-11-27T12:01:59.665Z,31.50
2022-11-27T12:04:52.448Z,27.55
2022-11-27T12:07:51.812Z,28.83
2022-11-27T12:10:29.918Z,26.35
2022-11-27T12:13:06.531Z,28.10
2022-11-27T12:15:39.914Z,28.87
2022-11-27T12:18:43.157Z,27.70
2022-11-27T12:21:41.776Z,24.55
2022-11-27T12:24:34.851Z,24.02
2022-11-27T12:27:19.061Z,25.48
2022-11-27T12:29:55.452Z,26.05
2022-11-27T12:32:31.643Z,24.83
2022-11-27T12:35:17.675Z,25.85
2022-11-27T12:38:00.698Z,23.95
2022-11-27T12:40:33.305Z,24.73
2022-11-27T12:43:12.729Z,24.27
2022-11-27T12:46:10.771Z,25.23
2022-11-27T12:48:50.155Z,24.33
2022-11-27T12:51:34.279Z,23.55
2022-11-27T12:54:06.671Z,25.15
2022-11-27T12:56:49.201Z,22.92
2022-11-27T12:59:25.349Z,23.85
2022-11-27T13:02:09.394Z,23.77
2022-11-27T13:04:39.867Z,25.23
2022-11-27T13:07:13.989Z,24.92
2022-11-27T13:09:53.766Z,24.70
2022-11-27T13:12:24.935Z,23.42
2022-11-27T13:15:35.784Z,21.70
2022-11-27T13:18:41.804Z,20.77
2022-11-27T13:21:13.343Z,20.12
2022-11-27T13:23:40.917Z,21.77
2022-11-27T13:26:23.343Z,20.65
2022-11-27T13:28:57.620Z,17.77
2022-11-27T13:31:31.235Z,20.23
2022-11-27T13:34:00.506Z,20.15
2022-11-27T13:36:36.239Z,18.48
2022-11-27T13:39:03.788Z,18.92
2022-11-27T13:41:40.162Z,17.55
2022-11-27T13:44:24.951Z,19.90
2022-11-27T13:46:54.809Z,20.42
2022-11-27T13:49:29.242Z,18.08
2022-11-27T13:52:16.860Z,18.92
2022-11-27T13:54:56.386Z,18.98
2022-11-27T13:57:25.222Z,18.60
2022-11-27T14:00:11.329Z,21.23
2022-11-27T14:02:51.219Z,21.40
2022-11-27T14:05:21.200Z,21.37
2022-11-27T14:07:51.211Z,22.62
2022-11-27T14:10:21.879Z,21.77
2022-11-27T14:13:08.658Z,21.23
2022-11-27T14:15:37.272Z,22.10
2022-11-27T14:18:14.703Z,22.52
2022-11-27T14:20:55.491Z,23.48
2022-11-27T14:23:30.793Z,23.17
2022-11-27T14:26:24.907Z,22.33
2022-11-27T14:28:54.597Z,23.65
2022-11-27T14:31:33.570Z,24.50
2022-11-27T14:34:23.128Z,25.55
2022-11-27T14:36:52.499Z,23.50
2022-11-27T14:39:24.644Z,25.40
2022-11-27T14:44:25.435Z,28.42
2022-11-27T14:46:54.562Z,25.62
2022-11-27T14:49:24.829Z,29.23
2022-11-27T14:51:52.665Z,27.17
2022-11-27T14:54:31.225Z,24.48
2022-11-27T14:56:58.758Z,25.23
2022-11-27T14:59:26.444Z,25.02
2022-11-27T15:02:07.264Z,27.35
2022-11-27T15:04:39.934Z,26.67
2022-11-27T15:07:16.120Z,26.87
2022-11-27T15:09:52.618Z,26.62
2022-11-27T15:12:33.985Z,28.52
2022-11-27T15:15:09.149Z,29.30
2022-11-27T15:17:38.343Z,29.42
2022-11-27T15:20:18.674Z,27.98
2022-11-27T15:22:54.456Z,26.02
2022-11-27T15:26:12.562Z,28.25
2022-11-27T15:28:47.163Z,28.00
2022-11-27T15:31:32.614Z,26.65
2022-11-27T15:34:03.764Z,27.73
2022-11-27T15:36:40.153Z,26.92
2022-11-27T15:39:27.270Z,27.20
2022-11-27T15:42:00.033Z,26.90
2022-11-27T15:44:30.339Z,27.65
2022-11-27T15:46:59.942Z,27.23
2022-11-27T15:49:27.602Z,28.98
2022-11-27T15:51:56.422Z,27.92
2022-11-27T15:54:24.607Z,28.65
2022-11-27T15:56:52.104Z,28.75
2022-11-27T15:59:20.933Z,27.10
2022-11-27T16:01:49.686Z,25.88
2022-11-27T16:04:17.490Z,26.85
2022-11-27T16:06:45.628Z,26.60
2022-11-27T16:09:13.017Z,26.15
2022-11-27T16:11:40.694Z,29.50
2022-11-27T16:14:08.009Z,29.85
2022-11-27T16:16:35.613Z,27.73
2022-11-27T16:19:05.419Z,27.65
2022-11-27T16:21:34.181Z,23.98
2022-11-27T16:24:04.085Z,25.62
2022-11-27T16:26:32.904Z,28.27
2022-11-27T16:29:00.382Z,28.00
2022-11-27T16:31:28.075Z,27.02
2022-11-27T16:33:56.310Z,26.65
2022-11-27T16:36:24.207Z,25.17
2022-11-27T16:38:52.592Z,25.30
2022-11-27T16:41:20.701Z,24.27
2022-11-27T16:43:50.742Z,22.48
2022-11-27T16:46:27.574Z,24.48
2022-11-27T16:48:57.595Z,23.10
2022-11-27T16:51:28.482Z,23.55
2022-11-27T16:53:57.738Z,24.10
2022-11-27T16:56:27.233Z,23.10
2022-11-27T16:59:00.958Z,23.52
2022-11-27T17:01:34.333Z,22.98
2022-11-27T17:04:04.870Z,24.70
2022-11-27T17:06:33.390Z,21.45
2022-11-27T17:09:02.247Z,22.98
2022-11-27T17:11:35.473Z,23.67
2022-11-27T17:14:08.361Z,24.27
2022-11-27T17:16:38.760Z,27.90
2022-11-27T17:19:07.141Z,26.40
2022-11-27T17:21:35.360Z,26.92
2022-11-27T17:24:10.124Z,27.33
2022-11-27T17:26:43.469Z,25.33
2022-11-27T17:29:12.828Z,22.98
2022-11-27T17:31:40.386Z,24.48
2022-11-27T17:34:09.801Z,21.75
2022-11-27T17:36:37.658Z,21.40
2022-11-27T17:39:06.863Z,19.80
2022-11-27T17:41:34.762Z,20.27
2022-11-27T17:44:05.396Z,20.25
2022-11-27T17:46:33.515Z,21.42
2022-11-27T17:49:03.959Z,26.42
2022-11-27T17:51:33.062Z,23.60
2022-11-27T17:54:01.879Z,22.73
2022-11-27T17:56:30.038Z,29.10
2022-11-27T17:58:59.721Z,31.02
2022-11-27T18:01:29.281Z,33.33
2022-11-27T18:04:00.418Z,29.33
2022-11-27T18:06:30.071Z,26.95
2022-11-27T18:08:58.542Z,26.00
2022-11-27T18:11:28.559Z,25.33
2022-11-27T18:13:57.528Z,21.95
2022-11-27T18:16:29.165Z,26.30
2022-11-27T18:18:57.997Z,23.35
2022-11-27T18:21:28.878Z,20.30
2022-11-27T18:27:07.062Z,22.65
2022-11-27T18:29:31.782Z,22.67
2022-11-27T18:31:59.532Z,21.85
2022-11-27T18:34:27.017Z,19.20
2022-11-27T18:36:57.290Z,17.92
2022-11-27T18:39:25.465Z,16.95
2022-11-27T18:41:52.850Z,18.50
2022-11-27T18:44:20.567Z,19.60
2022-11-27T18:46:48.255Z,18.23
2022-11-27T18:49:15.645Z,18.20
2022-11-27T18:51:43.042Z,16.92
2022-11-27T18:54:10.863Z,17.50
2022-11-27T18:56:38.344Z,15.70
2022-11-27T18:59:06.558Z,16.25
2022-11-27T19:01:41.461Z,15.60
2022-11-27T19:04:10.624Z,17.23
2022-11-27T19:06:39.222Z,15.85
2022-11-27T19:09:07.043Z,15.45
2022-11-27T19:11:35.171Z,16.35
2022-11-27T19:14:04.502Z,17.87
2022-11-27T19:16:39.116Z,17.12
2022-11-27T19:19:07.423Z,18.83
2022-11-27T19:21:35.500Z,22.55
2022-11-27T19:24:04.965Z,23.52
2022-11-27T19:26:35.346Z,25.70
2022-11-27T19:29:08.974Z,24.75
2022-11-27T19:31:39.368Z,24.77
2022-11-27T19:34:07.615Z,21.37
2022-11-27T19:36:35.701Z,19.45
2022-11-27T19:39:06.692Z,19.75
2022-11-27T19:41:34.316Z,18.98
2022-11-27T19:44:04.651Z,17.87
2022-11-27T19:46:35.367Z,19.37
2022-11-27T19:49:05.870Z,19.30
2022-11-27T19:51:35.594Z,17.87
2022-11-27T19:54:07.055Z,17.12
2022-11-27T19:56:40.084Z,16.10
2022-11-27T19:59:08.670Z,15.82
2022-11-27T20:01:37.770Z,14.15
2022-11-27T20:04:06.403Z,13.15
2022-11-27T20:06:37.304Z,13.15
2022-11-27T20:09:05.497Z,14.55
2022-11-27T20:11:35.418Z,14.20
2022-11-27T20:14:05.349Z,14.57
2022-11-27T20:16:34.000Z,17.27
2022-11-27T20:19:02.274Z,18.05
2022-11-27T20:21:29.813Z,19.00
2022-11-27T20:23:57.761Z,18.20
2022-11-27T20:26:27.488Z,19.58
2022-11-27T20:28:55.202Z,21.65
2022-11-27T20:31:33.970Z,21.25
2022-11-27T20:34:03.464Z,20.33
2022-11-27T20:36:33.026Z,23.45
2022-11-27T20:39:01.075Z,23.45
2022-11-27T20:41:29.000Z,23.45
2022-11-27T20:43:59.260Z,22.90
2022-11-27T20:46:27.299Z,22.87
2022-11-27T20:48:55.231Z,24.30
2022-11-27T20:51:28.713Z,22.48
2022-11-27T20:53:57.616Z,23.15
2022-11-27T20:56:25.651Z,24.58
2022-11-27T20:58:54.166Z,24.35
2022-11-27T21:01:33.443Z,25.60
2022-11-27T21:04:04.318Z,24.30
2022-11-27T21:06:32.503Z,23.50
2022-11-27T21:09:01.875Z,23.20
2022-11-27T21:11:31.129Z,25.60
2022-11-27T21:14:01.204Z,24.90
2022-11-27T21:16:30.994Z,24.12
2022-11-27T21:19:00.265Z,22.90
2022-11-27T21:21:28.610Z,23.15
2022-11-27T21:23:56.017Z,23.48
2022-11-27T21:26:24.118Z,25.27
2022-11-27T21:28:51.726Z,25.62
2022-11-27T21:31:24.415Z,24.23
2022-11-27T21:33:57.676Z,25.10
2022-11-27T21:36:30.526Z,24.37
2022-11-27T21:38:58.900Z,22.05
2022-11-27T21:41:26.980Z,23.25
2022-11-27T21:43:56.782Z,22.75
2022-11-27T21:46:25.322Z,21.35
2022-11-27T21:48:56.174Z,22.08
2022-11-27T21:51:25.962Z,22.85
2022-11-27T21:53:55.369Z,20.95
2022-11-27T21:56:24.459Z,22.17
2022-11-27T21:58:52.423Z,21.80
2022-11-27T22:01:22.542Z,21.42
2022-11-27T22:03:53.983Z,21.02
2022-11-27T22:06:22.682Z,22.10
2022-11-27T22:08:51.044Z,21.58
2022-11-27T22:11:20.908Z,22.52
2022-11-27T22:13:50.039Z,20.20
2022-11-27T22:16:19.928Z,21.10
2022-11-27T22:18:48.034Z,21.23
2022-11-27T22:21:16.570Z,18.65
2022-11-27T22:23:44.661Z,20.45
2022-11-27T22:26:13.905Z,19.95
2022-11-27T22:28:42.104Z,19.40
2022-11-27T22:31:28.199Z,20.40
2022-11-27T22:33:56.373Z,18.55
2022-11-27T22:36:31.255Z,19.73
2022-11-27T22:39:00.726Z,21.02
2022-11-27T22:41:30.232Z,27.45
2022-11-27T22:44:00.309Z,25.05
2022-11-27T22:46:33.850Z,19.52
2022-11-27T22:49:04.544Z,19.10
2022-11-27T22:51:35.325Z,19.23
2022-11-27T22:54:03.919Z,19.60
2022-11-27T22:56:33.698Z,21.42
2022-11-27T22:59:30.387Z,23.85
2022-11-27T23:01:49.172Z,22.00
2022-11-27T23:04:17.179Z,21.52
2022-11-27T23:06:48.601Z,20.42
2022-11-27T23:09:18.112Z,19.50
2022-11-27T23:11:45.587Z,17.80
2022-11-27T23:14:13.212Z,20.23
2022-11-27T23:16:40.907Z,18.60
2022-11-27T23:19:08.922Z,19.70
2022-11-27T23:21:37.699Z,18.35
2022-11-27T23:24:06.632Z,19.27
2022-11-27T23:26:34.428Z,18.30
2022-11-27T23:29:02.144Z,17.65
2022-11-27T23:31:32.615Z,18.50
2022-11-27T23:34:01.948Z,19.58
2022-11-27T23:36:30.974Z,19.95
2022-11-27T23:39:03.025Z,18.02
2022-11-27T23:41:31.385Z,18.58
2022-11-27T23:43:58.764Z,18.75
2022-11-27T23:46:27.802Z,18.67
2022-11-27T23:48:56.773Z,17.40
2022-11-27T23:51:26.267Z,18.65
2022-11-27T23:53:53.850Z,17.45
2022-11-27T23:56:24.089Z,17.95
2022-11-27T23:58:51.459Z,16.95
